TimeCDT,TemperatureF,Dew PointF,Humidity,Sea Level PressureIn,VisibilityMPH,Wind Direction,Wind SpeedMPH,Gust SpeedMPH,PrecipitationIn,Events,Conditions,WindDirDegrees,DateUTC
12:56 AM,71.1,69.1,93,29.99,10.0,SE,4.6,-,N/A,,Clear,130,2013-07-06 05:56:00
1:22 AM,71.6,69.8,94,30.03,10.0,SE,4.6,-,N/A,,Mostly Cloudy,130,2013-07-06 06:22:00
1:56 AM,72.0,70.0,93,29.99,10.0,ESE,4.6,-,N/A,,Overcast,120,2013-07-06 06:56:00
2:15 AM,71.6,69.8,94,30.02,10.0,Calm,Calm,-,N/A,,Mostly Cloudy,0,2013-07-06 07:15:00
2:56 AM,72.0,69.1,91,29.98,10.0,ENE,3.5,-,N/A,,Mostly Cloudy,60,2013-07-06 07:56:00
3:21 AM,71.6,69.8,94,30.02,10.0,NNE,3.5,-,N/A,,Overcast,30,2013-07-06 08:21:00
3:56 AM,73.0,70.0,90,29.98,10.0,NNE,4.6,-,N/A,,Overcast,30,2013-07-06 08:56:00
4:56 AM,73.0,71.1,93,29.99,7.0,Calm,Calm,-,N/A,,Overcast,0,2013-07-06 09:56:00
5:56 AM,73.0,71.1,93,29.99,8.0,NE,5.8,-,N/A,,Overcast,40,2013-07-06 10:56:00
6:56 AM,73.9,72.0,93,30.00,10.0,ENE,8.1,-,0.00,Rain,Light Rain,60,2013-07-06 11:56:00
7:56 AM,75.9,73.0,91,30.01,10.0,East,6.9,-,0.00,,Overcast,80,2013-07-06 12:56:00
8:51 AM,77.0,73.4,89,30.06,10.0,East,6.9,-,N/A,,Scattered Clouds,90,2013-07-06 13:51:00
8:56 AM,77.0,73.0,88,30.02,10.0,East,6.9,-,N/A,,Mostly Cloudy,80,2013-07-06 13:56:00
9:43 AM,77.0,73.4,89,30.07,10.0,East,4.6,-,N/A,Thunderstorm,Thunderstorm,80,2013-07-06 14:43:00
9:56 AM,77.0,73.9,90,30.02,10.0,East,6.9,-,N/A,Thunderstorm,Thunderstorm,80,2013-07-06 14:56:00
10:07 AM,77.0,73.4,89,30.06,10.0,East,6.9,-,N/A,,Overcast,80,2013-07-06 15:07:00
10:26 AM,78.8,73.4,83,30.07,10.0,SSW,6.9,-,N/A,,Mostly Cloudy,210,2013-07-06 15:26:00
10:35 AM,73.4,71.6,94,30.08,1.8,SSW,8.1,17.3,0.11,Rain,Heavy Rain,210,2013-07-06 15:35:00
10:42 AM,73.4,71.6,94,30.07,3.0,SW,4.6,-,0.11,Rain,Heavy Rain,220,2013-07-06 15:42:00
10:56 AM,73.0,71.1,93,30.04,8.0,Variable,3.5,-,0.15,Rain,Heavy Rain,0,2013-07-06 15:56:00
11:39 AM,75.2,71.6,89,30.06,10.0,Variable,5.8,-,0.04,,Mostly Cloudy,0,2013-07-06 16:39:00
11:56 AM,77.0,72.0,84,30.02,10.0,NW,5.8,-,0.04,,Partly Cloudy,320,2013-07-06 16:56:00
12:56 PM,77.0,71.1,82,30.03,10.0,West,3.5,-,0.00,Rain,Light Rain,270,2013-07-06 17:56:00
1:56 PM,75.0,71.1,87,30.04,10.0,Variable,3.5,-,0.01,,Overcast,0,2013-07-06 18:56:00
2:56 PM,75.0,70.0,84,30.00,10.0,Calm,Calm,-,0.01,,Mostly Cloudy,0,2013-07-06 19:56:00
3:23 PM,75.2,71.6,89,30.04,10.0,SSE,3.5,-,N/A,,Mostly Cloudy,150,2013-07-06 20:23:00
3:51 PM,75.2,71.6,89,30.03,10.0,Calm,Calm,-,N/A,,Mostly Cloudy,0,2013-07-06 20:51:00
3:56 PM,75.9,71.1,85,29.99,10.0,East,3.5,-,N/A,,Mostly Cloudy,100,2013-07-06 20:56:00
4:56 PM,77.0,72.0,84,29.99,10.0,SE,4.6,-,N/A,,Partly Cloudy,130,2013-07-06 21:56:00
5:37 PM,77.0,71.6,83,30.03,10.0,East,3.5,-,N/A,,Mostly Cloudy,100,2013-07-06 22:37:00
5:44 PM,78.8,71.6,78,30.03,10.0,East,3.5,-,N/A,,Scattered Clouds,80,2013-07-06 22:44:00
5:56 PM,77.0,72.0,84,29.99,10.0,Calm,Calm,-,N/A,,Partly Cloudy,0,2013-07-06 22:56:00
6:56 PM,77.0,72.0,84,30.00,10.0,SE,3.5,-,N/A,,Clear,130,2013-07-06 23:56:00
7:56 PM,75.9,71.1,85,30.00,10.0,ESE,3.5,-,N/A,,Partly Cloudy,120,2013-07-07 00:56:00
8:56 PM,75.0,72.0,90,30.02,10.0,SE,5.8,-,N/A,,Partly Cloudy,130,2013-07-07 01:56:00
9:56 PM,73.9,71.1,91,30.03,10.0,SE,5.8,-,N/A,,Clear,130,2013-07-07 02:56:00
10:56 PM,73.9,72.0,93,30.04,10.0,Calm,Calm,-,N/A,,Clear,0,2013-07-07 03:56:00
11:56 PM,75.0,72.0,90,30.04,10.0,Calm,Calm,-,N/A,,Clear,0,2013-07-07 04:56:00